createdAt,value
2019-01-25T00:01:10.603Z,61.20
2019-01-25T00:03:39.723Z,65.30
2019-01-25T00:06:09.278Z,64.03
2019-01-25T00:08:38.284Z,61.67
2019-01-25T00:11:07.578Z,62.27
2019-01-25T00:13:37.219Z,60.53
2019-01-25T00:16:06.548Z,64.77
2019-01-25T00:18:35.926Z,61.27
2019-01-25T00:21:05.156Z,57.57
2019-01-25T00:23:34.205Z,62.37
2019-01-25T00:26:03.285Z,59.53
2019-01-25T00:28:32.366Z,60.83
2019-01-25T00:31:01.669Z,59.00
2019-01-25T00:33:30.719Z,61.47
2019-01-25T00:35:59.834Z,52.53
2019-01-25T00:38:29.198Z,57.27
2019-01-25T00:40:58.209Z,61.67
2019-01-25T00:43:27.391Z,61.37
2019-01-25T00:45:56.482Z,56.87
2019-01-25T00:48:25.552Z,65.27
2019-01-25T00:50:54.532Z,59.03
2019-01-25T00:53:23.619Z,62.87
2019-01-25T00:55:52.727Z,58.47
2019-01-25T00:58:21.824Z,57.50
2019-01-25T01:00:50.854Z,59.03
2019-01-25T01:03:21.627Z,60.40
2019-01-25T01:05:50.983Z,55.40
2019-01-25T01:08:20.340Z,58.43
2019-01-25T01:10:49.482Z,61.30
2019-01-25T01:13:18.550Z,61.30
2019-01-25T01:15:47.893Z,60.17
2019-01-25T01:18:16.762Z,58.47
2019-01-25T01:20:45.780Z,57.07
2019-01-25T01:23:15.044Z,58.50
2019-01-25T01:25:44.066Z,52.97
2019-01-25T01:28:13.153Z,54.43
2019-01-25T01:30:42.734Z,61.47
2019-01-25T01:33:11.756Z,57.07
2019-01-25T01:35:40.871Z,56.70
2019-01-25T01:38:09.992Z,59.17
2019-01-25T01:40:39.042Z,56.00
2019-01-25T01:43:08.051Z,56.00
2019-01-25T01:45:37.074Z,56.30
2019-01-25T01:48:06.084Z,59.00
2019-01-25T01:50:35.116Z,57.67
2019-01-25T01:53:04.617Z,59.03
2019-01-25T01:55:33.570Z,58.67
2019-01-25T01:58:02.692Z,58.77
2019-01-25T02:00:31.904Z,60.67
2019-01-25T02:03:00.955Z,58.87
2019-01-25T02:05:30.364Z,59.53
2019-01-25T02:07:59.477Z,62.03
2019-01-25T02:10:29.487Z,62.43
2019-01-25T02:12:59.320Z,63.70
2019-01-25T02:15:28.422Z,62.93
2019-01-25T02:17:57.528Z,64.70
2019-01-25T02:20:30.873Z,63.57
2019-01-25T02:23:00.011Z,63.57
2019-01-25T02:25:29.081Z,58.50
2019-01-25T02:27:58.114Z,60.27
2019-01-25T02:30:27.703Z,65.53
2019-01-25T02:32:56.842Z,63.40
2019-01-25T02:35:26.463Z,60.17
2019-01-25T02:37:55.695Z,61.87
2019-01-25T02:40:25.936Z,63.97
2019-01-25T02:42:55.482Z,66.97
2019-01-25T02:45:24.591Z,57.70
2019-01-25T02:47:53.657Z,58.07
2019-01-25T02:50:22.742Z,65.50
2019-01-25T02:52:51.868Z,64.53
2019-01-25T02:55:20.967Z,63.80
2019-01-25T02:57:50.003Z,62.70
2019-01-25T03:00:20.847Z,57.87
2019-01-25T03:02:50.133Z,61.03
2019-01-25T03:05:20.057Z,67.87
2019-01-25T03:07:49.543Z,65.53
2019-01-25T03:10:18.641Z,66.90
2019-01-25T03:12:47.908Z,65.50
2019-01-25T03:15:22.522Z,63.10
2019-01-25T03:17:51.623Z,62.43
2019-01-25T03:20:21.007Z,69.57
2019-01-25T03:22:50.031Z,60.47
2019-01-25T03:25:26.738Z,64.80
2019-01-25T03:27:55.687Z,62.23
2019-01-25T03:30:25.869Z,68.43
2019-01-25T03:32:55.103Z,65.27
2019-01-25T03:35:26.151Z,62.60
2019-01-25T03:37:55.775Z,62.27
2019-01-25T03:40:26.917Z,62.10
2019-01-25T03:42:56.567Z,65.13
2019-01-25T03:45:26.162Z,65.13
2019-01-25T03:47:55.916Z,63.73
2019-01-25T03:50:28.125Z,67.23
2019-01-25T03:52:57.407Z,70.40
2019-01-25T03:55:28.214Z,63.80
2019-01-25T03:57:57.597Z,63.87
2019-01-25T04:00:30.079Z,66.53
2019-01-25T04:02:59.342Z,64.17
2019-01-25T04:05:28.653Z,64.87
2019-01-25T04:07:58.029Z,65.53
2019-01-25T04:10:28.970Z,61.67
2019-01-25T04:12:58.096Z,68.23
2019-01-25T04:15:29.411Z,64.33
2019-01-25T04:17:58.727Z,62.90
2019-01-25T04:20:27.942Z,64.33
2019-01-25T04:22:57.046Z,63.30
2019-01-25T04:25:26.326Z,64.60
2019-01-25T04:27:55.470Z,66.37
2019-01-25T04:30:26.335Z,64.53
2019-01-25T04:32:55.462Z,68.03
2019-01-25T04:35:24.636Z,64.47
2019-01-25T04:37:53.723Z,60.03
2019-01-25T04:40:23.185Z,58.50
2019-01-25T04:42:52.428Z,62.17
2019-01-25T04:45:21.806Z,64.77
2019-01-25T04:47:51.062Z,69.50
2019-01-25T04:50:21.831Z,65.27
2019-01-25T04:52:51.055Z,58.70
2019-01-25T04:55:28.454Z,70.40
2019-01-25T04:58:07.762Z,65.67
2019-01-25T05:00:37.369Z,60.57
2019-01-25T05:03:06.567Z,61.33
2019-01-25T05:05:35.921Z,65.83
2019-01-25T05:08:15.953Z,67.57
2019-01-25T05:10:45.379Z,65.97
2019-01-25T05:13:14.439Z,70.70
2019-01-25T05:15:43.470Z,67.07
2019-01-25T05:18:12.635Z,65.13
2019-01-25T05:20:41.854Z,62.43
2019-01-25T05:23:11.074Z,63.67
2019-01-25T05:25:40.056Z,68.70
2019-01-25T05:28:14.105Z,64.53
2019-01-25T05:30:57.754Z,71.33
2019-01-25T05:33:26.776Z,71.70
2019-01-25T05:35:55.787Z,76.60
2019-01-25T05:38:24.816Z,71.73
2019-01-25T05:40:53.988Z,69.20
2019-01-25T05:43:23.081Z,79.07
2019-01-25T05:45:52.167Z,65.20
2019-01-25T05:48:28.659Z,81.07
2019-01-25T05:51:01.462Z,85.67
2019-01-25T05:53:30.447Z,82.93
2019-01-25T05:55:59.514Z,92.83
2019-01-25T05:58:28.598Z,88.23
2019-01-25T06:00:57.678Z,83.33
2019-01-25T06:03:26.750Z,88.13
2019-01-25T06:06:06.525Z,72.53
2019-01-25T06:08:43.601Z,75.77
2019-01-25T06:11:10.867Z,76.43
2019-01-25T06:13:41.297Z,78.77
2019-01-25T06:16:10.294Z,71.33
2019-01-25T06:18:39.294Z,76.07
2019-01-25T06:21:08.379Z,73.67
2019-01-25T06:23:37.475Z,80.00
2019-01-25T06:26:08.149Z,74.27
2019-01-25T06:28:37.552Z,75.20
2019-01-25T06:31:06.813Z,80.27
2019-01-25T06:33:36.268Z,75.97
2019-01-25T06:36:07.019Z,66.23
2019-01-25T06:38:36.341Z,69.40
2019-01-25T06:41:06.164Z,71.50
2019-01-25T06:43:35.198Z,73.40
2019-01-25T06:46:04.379Z,67.67
2019-01-25T06:48:33.410Z,77.17
2019-01-25T06:51:05.355Z,74.30
2019-01-25T06:53:34.461Z,75.23
2019-01-25T06:56:03.913Z,75.07
2019-01-25T06:59:00.761Z,79.13
2019-01-25T07:01:49.192Z,75.23
2019-01-25T07:04:18.313Z,71.27
2019-01-25T07:06:47.282Z,80.30
2019-01-25T07:09:16.956Z,73.40
2019-01-25T07:11:51.603Z,73.73
2019-01-25T07:14:17.377Z,74.27
2019-01-25T07:16:46.477Z,75.87
2019-01-25T07:19:15.727Z,82.73
2019-01-25T07:21:44.829Z,77.30
2019-01-25T07:24:13.798Z,74.73
2019-01-25T07:26:42.839Z,77.27
2019-01-25T07:29:11.909Z,82.43
2019-01-25T07:31:40.919Z,77.57
2019-01-25T07:34:11.110Z,77.47
2019-01-25T07:36:40.134Z,76.37
2019-01-25T07:39:24.719Z,74.83
2019-01-25T07:41:59.285Z,77.23
2019-01-25T07:44:24.499Z,80.70
2019-01-25T07:46:53.582Z,81.10
2019-01-25T07:49:22.617Z,82.27
2019-01-25T07:51:51.677Z,76.20
2019-01-25T07:54:20.661Z,75.47
2019-01-25T07:56:49.720Z,75.90
2019-01-25T07:59:18.696Z,80.27
2019-01-25T08:01:47.741Z,77.13
2019-01-25T08:04:16.728Z,76.17
2019-01-25T08:06:45.941Z,74.70
2019-01-25T08:09:14.903Z,81.33
2019-01-25T08:11:43.960Z,77.53
2019-01-25T08:14:13.015Z,75.27
2019-01-25T08:16:42.131Z,68.93
2019-01-25T08:19:11.441Z,71.63
2019-01-25T08:21:40.461Z,72.27
2019-01-25T08:24:09.478Z,80.07
2019-01-25T08:26:39.233Z,84.80
2019-01-25T08:29:08.702Z,71.10
2019-01-25T08:31:37.779Z,77.33
2019-01-25T08:34:06.934Z,79.77
2019-01-25T08:36:36.295Z,76.47
2019-01-25T08:39:08.935Z,73.60
2019-01-25T08:41:37.969Z,81.93
2019-01-25T08:44:07.523Z,71.67
2019-01-25T08:46:36.479Z,75.73
2019-01-25T08:49:05.607Z,74.70
2019-01-25T08:51:34.547Z,73.93
2019-01-25T08:54:03.563Z,74.20
2019-01-25T08:56:32.681Z,79.50
2019-01-25T08:59:01.920Z,75.07
2019-01-25T09:01:31.189Z,70.77
2019-01-25T09:04:00.272Z,73.27
2019-01-25T09:06:29.331Z,77.23
2019-01-25T09:08:58.443Z,73.77
2019-01-25T09:11:27.391Z,71.80
2019-01-25T09:13:56.369Z,70.53
2019-01-25T09:16:25.378Z,77.50
2019-01-25T09:18:54.510Z,72.00
2019-01-25T09:21:23.707Z,75.23
2019-01-25T09:23:52.915Z,74.90
2019-01-25T09:26:21.920Z,74.27
2019-01-25T09:28:51.151Z,68.23
2019-01-25T09:31:20.097Z,70.53
2019-01-25T09:33:49.244Z,67.50
2019-01-25T09:36:18.255Z,80.50
2019-01-25T09:38:47.250Z,73.90
2019-01-25T09:41:16.319Z,68.40
2019-01-25T09:43:45.434Z,68.93
2019-01-25T09:46:14.403Z,69.80
2019-01-25T09:48:43.693Z,67.97
2019-01-25T09:51:12.698Z,69.70
2019-01-25T09:53:41.832Z,65.00
2019-01-25T09:56:10.899Z,64.67
2019-01-25T09:58:43.686Z,66.30
2019-01-25T10:01:15.159Z,68.60
2019-01-25T10:03:44.107Z,64.33
2019-01-25T10:06:13.159Z,64.50
2019-01-25T10:08:42.199Z,63.10
2019-01-25T10:11:11.167Z,64.83
2019-01-25T10:13:40.541Z,67.03
2019-01-25T10:16:09.872Z,68.17
2019-01-25T10:18:38.852Z,62.53
2019-01-25T10:21:08.478Z,65.67
2019-01-25T10:23:39.191Z,60.83
2019-01-25T10:26:08.042Z,70.93
2019-01-25T10:28:37.091Z,60.43
2019-01-25T10:31:06.462Z,55.73
2019-01-25T10:33:35.451Z,68.13
2019-01-25T10:36:05.083Z,55.37
2019-01-25T10:38:34.106Z,79.20
2019-01-25T10:41:03.145Z,55.17
2019-01-25T10:43:32.209Z,61.47
2019-01-25T10:46:01.612Z,64.73
2019-01-25T10:48:30.530Z,57.43
2019-01-25T10:50:59.813Z,54.50
2019-01-25T10:53:29.610Z,59.73
2019-01-25T10:55:58.598Z,53.13
2019-01-25T10:58:27.858Z,71.07
2019-01-25T11:00:56.908Z,60.87
2019-01-25T11:03:25.936Z,49.30
2019-01-25T11:05:55.175Z,54.93
2019-01-25T11:08:24.155Z,53.83
2019-01-25T11:10:53.166Z,55.63
2019-01-25T11:13:22.445Z,50.47
2019-01-25T11:15:51.375Z,59.23
2019-01-25T11:18:20.874Z,54.40
2019-01-25T11:20:50.209Z,52.13
2019-01-25T11:23:19.243Z,51.90
2019-01-25T11:25:48.338Z,52.10
2019-01-25T11:28:17.310Z,53.20
2019-01-25T11:30:46.370Z,46.17
2019-01-25T11:33:15.299Z,53.00
2019-01-25T11:35:44.717Z,50.93
2019-01-25T11:38:13.914Z,48.27
2019-01-25T11:40:44.633Z,76.77
2019-01-25T11:43:13.989Z,82.77
2019-01-25T11:45:43.314Z,53.37
2019-01-25T11:48:15.202Z,63.43
2019-01-25T11:50:44.353Z,57.63
2019-01-25T11:53:13.451Z,53.43
2019-01-25T11:55:42.571Z,51.90
2019-01-25T11:58:11.681Z,47.20
2019-01-25T12:00:44.141Z,44.00
2019-01-25T12:03:13.829Z,47.53
2019-01-25T12:05:43.177Z,53.23
2019-01-25T12:08:12.956Z,55.10
2019-01-25T12:10:42.662Z,51.97
2019-01-25T12:13:16.280Z,51.10
2019-01-25T12:15:42.897Z,48.80
2019-01-25T12:18:11.971Z,45.40
2019-01-25T12:20:41.193Z,47.07
2019-01-25T12:23:10.214Z,48.43
2019-01-25T12:25:39.540Z,46.87
2019-01-25T12:28:08.917Z,43.43
2019-01-25T12:30:39.337Z,45.73
2019-01-25T12:33:09.513Z,45.77
2019-01-25T12:35:41.078Z,46.00
2019-01-25T12:38:10.171Z,58.63
2019-01-25T12:40:42.150Z,58.90
2019-01-25T12:43:10.628Z,55.87
2019-01-25T12:45:40.309Z,52.63
2019-01-25T12:48:09.350Z,49.80
2019-01-25T12:50:53.929Z,56.93
2019-01-25T12:53:25.280Z,57.77
2019-01-25T12:55:54.385Z,53.50
2019-01-25T12:58:23.469Z,51.73
2019-01-25T13:00:52.951Z,82.87
2019-01-25T13:03:22.031Z,50.63
2019-01-25T13:05:51.161Z,89.90
2019-01-25T13:08:20.253Z,58.33
2019-01-25T13:10:49.503Z,55.57
2019-01-25T13:13:18.523Z,42.43
2019-01-25T13:15:47.822Z,45.73
2019-01-25T13:18:17.111Z,53.50
2019-01-25T13:20:46.070Z,42.63
2019-01-25T13:23:15.047Z,54.13
2019-01-25T13:25:47.224Z,44.50
2019-01-25T13:28:15.144Z,44.97
2019-01-25T13:30:44.127Z,50.43
2019-01-25T13:33:13.130Z,48.53
2019-01-25T13:35:42.860Z,42.73
2019-01-25T13:38:11.877Z,48.50
2019-01-25T13:40:40.931Z,52.13
2019-01-25T13:43:09.955Z,47.60
2019-01-25T13:45:38.902Z,46.27
2019-01-25T13:48:08.493Z,47.67
2019-01-25T13:50:37.722Z,48.50
2019-01-25T13:53:06.902Z,49.73
2019-01-25T13:55:36.181Z,47.57
2019-01-25T13:58:05.202Z,48.80
2019-01-25T14:00:34.794Z,54.50
2019-01-25T14:03:03.962Z,45.53
2019-01-25T14:05:33.181Z,47.90
2019-01-25T14:08:02.614Z,50.97
2019-01-25T14:10:33.747Z,50.47
2019-01-25T14:13:02.851Z,62.27
2019-01-25T14:15:32.731Z,46.40
2019-01-25T14:18:02.139Z,48.87
2019-01-25T14:20:32.017Z,52.27
2019-01-25T14:23:09.684Z,48.93
2019-01-25T14:25:38.739Z,51.43
2019-01-25T14:28:14.124Z,49.80
2019-01-25T14:30:43.562Z,48.47
2019-01-25T14:33:12.851Z,46.77
2019-01-25T14:35:52.069Z,52.13
2019-01-25T14:38:21.191Z,50.30
2019-01-25T14:40:51.118Z,44.03
2019-01-25T14:43:20.118Z,51.43
2019-01-25T14:45:49.088Z,44.20
2019-01-25T14:48:18.894Z,51.53
2019-01-25T14:50:48.198Z,51.00
2019-01-25T14:53:17.633Z,60.63
2019-01-25T14:55:46.907Z,55.03
2019-01-25T14:58:17.582Z,53.50
2019-01-25T15:00:46.643Z,55.33
2019-01-25T15:03:15.701Z,61.20
2019-01-25T15:05:44.832Z,57.07
2019-01-25T15:08:13.764Z,54.53
2019-01-25T15:10:43.094Z,58.37
2019-01-25T15:13:12.986Z,61.10
2019-01-25T15:15:42.274Z,51.23
2019-01-25T15:18:11.807Z,54.17
2019-01-25T15:20:42.106Z,62.37
2019-01-25T15:23:11.406Z,61.90
2019-01-25T15:25:40.333Z,52.03
2019-01-25T15:28:10.049Z,56.40
2019-01-25T15:30:39.058Z,60.37
2019-01-25T15:33:08.154Z,62.47
2019-01-25T15:35:37.174Z,58.57
2019-01-25T15:38:06.286Z,57.77
2019-01-25T15:40:35.672Z,56.63
2019-01-25T15:43:04.854Z,57.70
2019-01-25T15:45:34.130Z,58.43
2019-01-25T15:48:03.294Z,56.03
2019-01-25T15:50:33.296Z,57.17
2019-01-25T15:53:02.307Z,54.63
2019-01-25T15:55:31.661Z,55.10
2019-01-25T15:58:00.607Z,60.13
2019-01-25T16:00:30.514Z,61.63
2019-01-25T16:02:59.599Z,62.60
2019-01-25T16:05:28.690Z,86.63
2019-01-25T16:07:57.786Z,99.70
2019-01-25T16:10:26.905Z,138.20
2019-01-25T16:12:55.898Z,92.63
2019-01-25T16:15:29.994Z,79.80
2019-01-25T16:17:59.139Z,105.93
2019-01-25T16:20:28.246Z,159.63
2019-01-25T16:22:57.971Z,308.47
2019-01-25T16:25:36.183Z,209.67
2019-01-25T16:28:05.846Z,152.37
2019-01-25T16:30:37.298Z,127.07
2019-01-25T16:33:06.466Z,114.50
2019-01-25T16:35:35.814Z,98.93
2019-01-25T16:38:05.823Z,97.73
2019-01-25T16:40:35.067Z,70.27
2019-01-25T16:43:05.194Z,93.47
2019-01-25T16:45:37.141Z,79.63
2019-01-25T16:48:06.414Z,70.13
2019-01-25T16:50:35.950Z,75.20
2019-01-25T16:53:06.514Z,64.87
2019-01-25T16:55:35.752Z,68.80
2019-01-25T16:58:05.394Z,66.80
2019-01-25T17:00:40.352Z,66.87
2019-01-25T17:03:09.548Z,66.60
2019-01-25T17:05:38.924Z,83.17
2019-01-25T17:08:12.098Z,84.10
2019-01-25T17:10:41.274Z,89.03
2019-01-25T17:13:10.402Z,77.70
2019-01-25T17:15:39.455Z,72.73
2019-01-25T17:18:08.901Z,72.17
2019-01-25T17:20:38.032Z,83.10
2019-01-25T17:23:08.441Z,96.80
2019-01-25T17:25:37.565Z,87.93
2019-01-25T17:28:08.326Z,79.03
2019-01-25T17:30:38.714Z,92.40
2019-01-25T17:33:08.090Z,84.10
2019-01-25T17:35:37.160Z,78.87
2019-01-25T17:38:07.265Z,65.00
2019-01-25T17:40:46.925Z,65.60
2019-01-25T17:43:15.691Z,64.17
2019-01-25T17:45:44.807Z,57.13
2019-01-25T17:48:14.140Z,61.53
2019-01-25T17:50:43.386Z,68.97
2019-01-25T17:53:12.382Z,56.97
2019-01-25T17:55:41.453Z,55.37
2019-01-25T17:58:10.467Z,60.77
2019-01-25T18:00:47.254Z,60.73
2019-01-25T18:03:16.471Z,57.83
2019-01-25T18:05:45.875Z,58.90
2019-01-25T18:08:15.188Z,55.70
2019-01-25T18:10:44.178Z,54.00
2019-01-25T18:13:13.767Z,62.63
2019-01-25T18:15:43.238Z,55.80
2019-01-25T18:18:12.382Z,58.77
2019-01-25T18:20:41.668Z,57.40
2019-01-25T18:23:11.569Z,59.33
2019-01-25T18:25:46.131Z,59.67
2019-01-25T18:28:28.622Z,60.50
2019-01-25T18:31:19.445Z,62.60
2019-01-25T18:33:48.914Z,55.80
2019-01-25T18:36:18.080Z,55.90
2019-01-25T18:38:47.300Z,62.03
2019-01-25T18:41:16.723Z,59.77
2019-01-25T18:43:45.805Z,59.63
2019-01-25T18:46:15.215Z,60.93
2019-01-25T18:48:44.311Z,57.63
2019-01-25T18:51:13.522Z,63.57
2019-01-25T18:53:42.683Z,61.20
2019-01-25T18:56:13.674Z,61.90
2019-01-25T18:58:43.630Z,66.63
2019-01-25T19:01:13.213Z,68.90
2019-01-25T19:03:42.221Z,60.47
2019-01-25T19:06:11.257Z,58.83
2019-01-25T19:08:40.110Z,63.27
2019-01-25T19:11:09.777Z,63.70
2019-01-25T19:13:38.839Z,64.27
2019-01-25T19:16:08.243Z,65.17
2019-01-25T19:18:37.642Z,59.63
2019-01-25T19:21:06.752Z,55.80
2019-01-25T19:23:35.830Z,55.03
2019-01-25T19:26:04.995Z,51.90
2019-01-25T19:28:34.049Z,50.70
2019-01-25T19:31:03.033Z,52.07
2019-01-25T19:33:32.128Z,52.73
2019-01-25T19:36:01.282Z,47.67
2019-01-25T19:38:30.654Z,47.40
2019-01-25T19:40:59.862Z,49.47
2019-01-25T19:43:28.843Z,47.47
2019-01-25T19:45:57.885Z,45.50
2019-01-25T19:48:26.811Z,48.60
2019-01-25T19:50:55.782Z,47.30
2019-01-25T19:53:24.793Z,47.80
2019-01-25T19:55:53.842Z,47.93
2019-01-25T19:58:22.871Z,45.43
2019-01-25T20:00:52.015Z,50.53
2019-01-25T20:03:21.051Z,47.83
2019-01-25T20:05:50.173Z,47.83
2019-01-25T20:08:19.117Z,48.23
2019-01-25T20:10:48.513Z,45.57
2019-01-25T20:13:17.840Z,42.47
2019-01-25T20:15:47.242Z,47.77
2019-01-25T20:18:16.251Z,40.27
2019-01-25T20:20:45.311Z,46.87
2019-01-25T20:23:14.598Z,45.40
2019-01-25T20:25:46.444Z,42.77
2019-01-25T20:28:15.675Z,43.70
2019-01-25T20:30:49.762Z,43.83
2019-01-25T20:33:16.757Z,43.77
2019-01-25T20:35:45.906Z,42.17
2019-01-25T20:38:16.023Z,43.40
2019-01-25T20:40:45.066Z,42.23
2019-01-25T20:43:14.443Z,39.80
2019-01-25T20:45:43.601Z,46.37
2019-01-25T20:48:12.659Z,43.70
2019-01-25T20:50:41.939Z,41.73
2019-01-25T20:53:12.357Z,47.67
2019-01-25T20:55:43.131Z,44.60
2019-01-25T20:58:12.250Z,42.83
2019-01-25T21:00:41.485Z,42.73
2019-01-25T21:03:13.453Z,42.47
2019-01-25T21:05:42.547Z,42.37
2019-01-25T21:08:11.680Z,42.60
2019-01-25T21:10:41.305Z,47.27
2019-01-25T21:13:10.358Z,41.37
2019-01-25T21:15:39.431Z,45.57
2019-01-25T21:18:08.640Z,46.10
2019-01-25T21:20:40.416Z,47.70
2019-01-25T21:23:09.511Z,44.10
2019-01-25T21:25:38.719Z,49.60
2019-01-25T21:28:08.264Z,46.57
2019-01-25T21:30:37.862Z,43.93
2019-01-25T21:33:09.981Z,45.90
2019-01-25T21:35:40.017Z,47.10
2019-01-25T21:38:09.136Z,51.37
2019-01-25T21:40:38.162Z,48.83
2019-01-25T21:43:07.579Z,44.30
2019-01-25T21:45:42.955Z,43.47
2019-01-25T21:48:19.019Z,46.40
2019-01-25T21:50:48.751Z,51.93
2019-01-25T21:53:17.781Z,49.20
2019-01-25T21:55:46.794Z,47.43
2019-01-25T21:58:15.767Z,47.73
2019-01-25T22:00:44.889Z,48.57
2019-01-25T22:03:13.926Z,50.63
2019-01-25T22:05:43.087Z,48.77
2019-01-25T22:08:12.187Z,48.57
2019-01-25T22:10:44.570Z,47.40
2019-01-25T22:13:13.614Z,44.67
2019-01-25T22:15:42.638Z,45.80
2019-01-25T22:18:11.756Z,50.20
2019-01-25T22:20:41.122Z,48.30
2019-01-25T22:23:10.389Z,43.47
2019-01-25T22:25:39.719Z,45.97
2019-01-25T22:28:09.255Z,48.23
2019-01-25T22:30:38.381Z,57.27
2019-01-25T22:33:07.622Z,50.10
2019-01-25T22:35:36.638Z,49.30
2019-01-25T22:38:05.662Z,52.40
2019-01-25T22:40:34.761Z,51.20
2019-01-25T22:43:05.455Z,49.00
2019-01-25T22:45:35.026Z,51.17
2019-01-25T22:48:04.502Z,51.57
2019-01-25T22:50:35.977Z,51.10
2019-01-25T22:53:05.230Z,54.63
2019-01-25T22:55:34.549Z,56.47
2019-01-25T22:58:03.670Z,47.60
2019-01-25T23:00:54.593Z,52.67
2019-01-25T23:03:40.445Z,50.80
2019-01-25T23:06:55.808Z,52.20
2019-01-25T23:09:33.194Z,49.93
2019-01-25T23:12:02.651Z,50.50
2019-01-25T23:14:31.658Z,52.63
2019-01-25T23:17:00.811Z,56.03
2019-01-25T23:19:30.092Z,52.93
2019-01-25T23:21:59.107Z,54.37
2019-01-25T23:24:28.310Z,53.67
2019-01-25T23:26:57.618Z,54.47
2019-01-25T23:29:26.667Z,54.57
2019-01-25T23:31:55.686Z,50.17
2019-01-25T23:34:24.630Z,52.00
2019-01-25T23:36:53.487Z,57.13
2019-01-25T23:39:22.607Z,55.43
2019-01-25T23:41:51.527Z,60.27
2019-01-25T23:44:20.579Z,56.13
2019-01-25T23:46:49.539Z,60.07
2019-01-25T23:49:18.537Z,52.67
2019-01-25T23:51:47.530Z,54.77
2019-01-25T23:54:16.414Z,57.27
2019-01-25T23:56:45.354Z,56.63
2019-01-25T23:59:14.377Z,54.90
